Time;durP1;ratioP1;P1;durP2;ratioP2;P2;SDS_P1;SDS_P2;PMS_P1;PMS_P2;Temp;Humidity;BMP_temperature;BMP_pressure;BME280_temperature;BME280_humidity;BME280_pressure;Samples;Min_cycle;Max_cycle;Signal;HPM_P1;HPM_P2
2021/01/24 00:01:14;;;;;;;50.05;27.95;;;;;;;5.53;76.55;98312.47;2858718;82;21126;-63
2021/01/24 00:05:18;;;;;;;45.10;26.25;;;;;;;5.57;76.29;98311.20;2858770;82;21188;-64
2021/01/24 00:09:21;;;;;;;35.98;21.45;;;;;;;5.56;76.24;98310.39;2858246;82;21146;-64
2021/01/24 00:13:23;;;;;;;48.52;25.02;;;;;;;5.57;76.32;98304.14;2858517;82;21146;-63
2021/01/24 00:17:28;;;;;;;32.90;20.57;;;;;;;5.58;76.25;98300.52;2857122;83;21142;-64
2021/01/24 00:21:31;;;;;;;37.35;20.27;;;;;;;5.61;76.00;98302.05;2850129;81;21150;-65
2021/01/24 00:25:34;;;;;;;45.05;21.48;;;;;;;5.58;75.77;98295.25;2849138;82;21592;-64
2021/01/24 00:29:37;;;;;;;31.45;21.70;;;;;;;5.59;76.33;98296.06;2917471;81;21122;-65
2021/01/24 00:33:40;;;;;;;29.52;22.02;;;;;;;5.62;76.12;98284.41;2919485;81;21162;-65
2021/01/24 00:37:43;;;;;;;32.15;18.82;;;;;;;5.61;75.71;98278.79;2919423;81;21126;-64
2021/01/24 00:41:45;;;;;;;26.25;16.75;;;;;;;5.58;75.95;98284.70;2913445;81;21150;-63
2021/01/24 00:45:50;;;;;;;25.52;18.32;;;;;;;5.61;75.84;98284.91;2911044;81;21146;-63
2021/01/24 00:49:53;;;;;;;29.15;17.60;;;;;;;5.63;76.00;98286.06;2911464;81;21160;-64
2021/01/24 00:53:56;;;;;;;20.88;14.53;;;;;;;5.61;75.71;98288.02;2911333;81;21146;-63
2021/01/24 00:57:58;;;;;;;21.15;12.68;;;;;;;5.51;75.84;98288.89;2911134;81;21154;-65
2021/01/24 01:02:02;;;;;;;17.98;11.93;;;;;;;5.44;76.03;98290.41;2911304;81;21170;-64
2021/01/24 01:06:05;;;;;;;14.25;9.70;;;;;;;5.34;76.08;98281.70;2911446;81;21118;-63
2021/01/24 01:10:09;;;;;;;13.62;8.98;;;;;;;5.25;76.51;98276.30;2911342;81;21126;-63
2021/01/24 01:14:13;;;;;;;15.03;10.40;;;;;;;5.25;76.90;98285.52;2911088;81;21102;-63
2021/01/24 01:18:16;;;;;;;10.93;8.65;;;;;;;5.27;76.92;98282.25;2911009;81;21172;-64
2021/01/24 01:22:19;;;;;;;14.30;9.05;;;;;;;5.29;77.15;98280.30;2942829;78;21125;-64
2021/01/24 01:26:21;;;;;;;14.38;10.15;;;;;;;5.32;76.64;98286.30;2990629;79;21089;-63
2021/01/24 01:30:25;;;;;;;15.40;11.28;;;;;;;5.29;76.71;98278.98;2999886;77;21140;-64
2021/01/24 01:34:28;;;;;;;12.23;9.98;;;;;;;5.25;76.34;98276.30;2982274;77;21140;-65
2021/01/24 01:38:31;;;;;;;19.50;12.13;;;;;;;5.03;76.51;98277.92;2914051;81;21163;-64
2021/01/24 01:42:34;;;;;;;17.82;14.25;;;;;;;4.93;77.80;98286.67;2981898;79;21140;-64
2021/01/24 01:46:39;;;;;;;21.50;13.62;;;;;;;4.86;77.83;98281.13;3027568;77;21121;-65
2021/01/24 01:50:42;;;;;;;21.37;13.00;;;;;;;4.83;78.10;98269.55;3058223;77;21145;-64
2021/01/24 01:54:47;;;;;;;23.25;15.95;;;;;;;4.83;78.24;98274.81;3058245;77;21465;-64
2021/01/24 01:58:50;;;;;;;23.38;15.90;;;;;;;4.89;78.55;98270.77;3030799;77;21117;-63
2021/01/24 02:03:21;;;;;;;27.82;18.87;;;;;;;4.95;78.51;98272.88;3008703;79;21181;-63
2021/01/24 02:07:32;;;;;;;28.10;15.65;;;;;;;4.96;78.21;98277.17;3008664;79;21129;-64
2021/01/24 02:11:56;;;;;;;30.23;18.30;;;;;;;4.85;78.32;98268.08;3008656;79;21159;-63
2021/01/24 02:16:01;;;;;;;25.77;16.50;;;;;;;4.92;79.19;98273.16;2999736;78;21132;-64
2021/01/24 02:20:19;;;;;;;19.25;12.15;;;;;;;5.09;79.02;98268.13;2995322;78;21122;-65
2021/01/24 02:24:24;;;;;;;15.00;12.47;;;;;;;5.26;79.03;98266.09;3028415;78;21098;-62
2021/01/24 02:29:09;;;;;;;19.90;11.95;;;;;;;5.37;78.29;98260.33;3026592;78;21102;-64
2021/01/24 02:33:19;;;;;;;14.78;11.35;;;;;;;5.42;77.52;98251.50;3020896;78;21121;-64
2021/01/24 02:37:23;;;;;;;21.07;16.50;;;;;;;5.43;77.28;98246.56;3025782;78;21133;-63
2021/01/24 02:41:26;;;;;;;23.57;16.07;;;;;;;5.43;77.32;98244.77;3001942;78;21116;-64
2021/01/24 02:45:32;;;;;;;22.80;15.58;;;;;;;5.34;77.00;98242.98;3031280;78;21133;-64
2021/01/24 02:49:41;;;;;;;17.00;14.40;;;;;;;5.23;77.14;98251.06;3020020;77;21604;-66
2021/01/24 02:53:46;;;;;;;27.30;17.62;;;;;;;5.16;77.52;98254.75;3012887;79;21149;-63
2021/01/24 02:57:49;;;;;;;22.37;17.12;;;;;;;5.13;77.77;98261.63;3012794;79;21091;-65
2021/01/24 03:01:52;;;;;;;24.30;14.85;;;;;;;5.10;77.86;98257.92;3012772;79;21117;-64
2021/01/24 03:05:56;;;;;;;21.35;15.53;;;;;;;5.08;77.92;98246.70;3012700;78;21137;-63
2021/01/24 03:09:59;;;;;;;22.93;15.98;;;;;;;5.06;78.18;98244.22;3012539;79;21147;-64
2021/01/24 03:14:19;;;;;;;19.45;14.43;;;;;;;5.04;78.22;98239.58;3012850;78;21125;-63
2021/01/24 03:18:26;;;;;;;26.23;15.80;;;;;;;5.09;78.27;98239.13;3012587;78;21097;-63
2021/01/24 03:22:30;;;;;;;24.07;16.73;;;;;;;5.17;78.49;98231.37;3015048;78;21152;-63
2021/01/24 03:26:34;;;;;;;22.93;17.40;;;;;;;5.22;78.35;98225.17;3021504;78;21105;-64
2021/01/24 03:30:39;;;;;;;27.95;18.73;;;;;;;5.31;78.36;98226.63;3021866;78;21110;-64
2021/01/24 03:34:42;;;;;;;39.03;21.95;;;;;;;5.36;78.22;98225.20;3021947;77;21105;-64
2021/01/24 03:38:45;;;;;;;29.52;19.75;;;;;;;5.41;77.79;98228.73;3021750;78;21121;-64
2021/01/24 03:42:48;;;;;;;26.65;18.90;;;;;;;5.36;77.52;98221.75;3021749;78;21133;-64
2021/01/24 03:46:51;;;;;;;36.15;23.45;;;;;;;5.37;77.65;98223.41;3021838;78;21129;-64
2021/01/24 03:50:54;;;;;;;32.30;21.52;;;;;;;5.41;77.74;98227.42;3021408;77;21109;-65
2021/01/24 03:54:57;;;;;;;35.40;20.27;;;;;;;5.38;77.71;98229.03;3021660;78;21180;-63
2021/01/24 03:59:00;;;;;;;34.10;21.93;;;;;;;5.45;77.89;98231.93;3021895;77;21089;-65
2021/01/24 04:03:03;;;;;;;33.30;22.58;;;;;;;5.47;77.82;98231.30;3021690;78;21113;-64
2021/01/24 04:07:06;;;;;;;37.80;20.88;;;;;;;5.38;76.83;98232.98;3021616;78;22243;-64
2021/01/24 04:11:09;;;;;;;32.65;21.95;;;;;;;5.12;77.64;98237.56;2974380;78;21160;-63
2021/01/24 04:15:13;;;;;;;33.60;21.15;;;;;;;5.14;78.33;98237.74;2981123;78;21165;-65
2021/01/24 04:19:17;;;;;;;28.60;19.73;;;;;;;5.00;78.24;98240.34;3040053;77;21615;-64
2021/01/24 04:23:20;;;;;;;39.70;22.45;;;;;;;4.93;78.70;98234.45;3039540;78;21133;-64
2021/01/24 04:27:23;;;;;;;38.53;23.60;;;;;;;4.91;78.93;98232.44;3042983;78;21134;-64
2021/01/24 04:31:26;;;;;;;32.17;21.20;;;;;;;4.83;79.40;98237.09;2991578;79;21114;-64
2021/01/24 04:35:29;;;;;;;27.55;17.55;;;;;;;4.87;79.92;98229.25;2983013;79;21126;-66
2021/01/24 04:39:32;;;;;;;30.05;18.10;;;;;;;4.90;79.63;98226.33;2994270;79;21131;-65
2021/01/24 04:43:35;;;;;;;27.32;18.85;;;;;;;4.85;79.16;98227.24;2994245;79;21145;-64
2021/01/24 04:47:44;;;;;;;26.42;18.50;;;;;;;4.73;79.31;98224.42;3040845;77;21125;-64
2021/01/24 04:51:48;;;;;;;29.92;19.02;;;;;;;4.69;79.81;98214.64;3048574;78;21101;-64
2021/01/24 04:55:51;;;;;;;57.62;35.90;;;;;;;4.75;80.17;98219.84;3048732;78;21141;-63
2021/01/24 04:59:54;;;;;;;30.35;20.50;;;;;;;4.86;80.42;98212.63;3048570;77;21113;-64
2021/01/24 05:03:58;;;;;;;38.20;22.17;;;;;;;4.99;80.08;98214.11;3048350;78;21090;-64
2021/01/24 05:08:00;;;;;;;38.83;26.07;;;;;;;5.08;79.54;98204.53;3048865;78;21145;-62
2021/01/24 05:12:07;;;;;;;28.83;17.55;;;;;;;5.10;79.06;98196.84;3048396;78;21141;-63
2021/01/24 05:16:10;;;;;;;18.65;14.07;;;;;;;5.09;79.42;98199.13;3048393;78;21138;-64
2021/01/24 05:20:16;;;;;;;23.38;16.57;;;;;;;5.20;79.65;98191.54;3048274;78;30542;-65
2021/01/24 05:24:21;;;;;;;22.52;16.12;;;;;;;5.31;79.09;98176.55;3013536;78;21169;-64
2021/01/24 05:28:27;;;;;;;29.65;18.25;;;;;;;5.40;79.05;98174.34;2991013;79;21676;-65
2021/01/24 05:32:45;;;;;;;24.80;16.45;;;;;;;5.43;78.51;98159.08;2991322;79;21110;-63
2021/01/24 05:36:48;;;;;;;20.85;14.15;;;;;;;5.40;78.23;98155.89;2991354;79;21094;-64
2021/01/24 05:40:51;;;;;;;25.68;14.65;;;;;;;5.36;78.02;98161.11;2991393;79;21137;-64
2021/01/24 05:44:54;;;;;;;19.20;13.32;;;;;;;5.36;77.98;98158.48;2990964;79;21141;-64
2021/01/24 05:48:57;;;;;;;22.20;14.45;;;;;;;5.31;77.94;98161.53;2991173;79;21149;-66
2021/01/24 05:53:05;;;;;;;23.75;17.77;;;;;;;5.24;78.01;98165.23;2991112;79;21153;-64
2021/01/24 05:57:11;;;;;;;24.87;15.98;;;;;;;5.29;78.30;98170.89;2991308;79;21138;-64
2021/01/24 06:01:14;;;;;;;21.93;14.17;;;;;;;5.35;78.33;98178.72;2991469;79;21118;-63
2021/01/24 06:05:17;;;;;;;19.25;12.47;;;;;;;5.42;78.22;98181.62;2991206;79;21102;-64
2021/01/24 06:09:20;;;;;;;21.90;14.13;;;;;;;5.52;78.32;98181.11;2980880;79;21110;-66
2021/01/24 06:13:27;;;;;;;27.05;18.30;;;;;;;5.61;78.03;98180.72;2933996;79;21170;-65
2021/01/24 06:17:34;;;;;;;25.55;16.35;;;;;;;5.68;77.82;98186.22;2910646;81;21493;-65
2021/01/24 06:21:54;;;;;;;24.37;16.02;;;;;;;5.72;77.56;98187.11;2879867;80;21172;-64
2021/01/24 06:26:11;;;;;;;28.75;18.57;;;;;;;5.68;77.15;98187.06;2981416;79;21124;-63
2021/01/24 06:30:16;;;;;;;24.82;17.25;;;;;;;5.65;77.16;98193.11;3054700;77;21169;-65
2021/01/24 06:34:42;;;;;;;23.87;16.97;;;;;;;5.47;77.14;98172.78;3053893;78;21101;-65
2021/01/24 06:38:55;;;;;;;29.92;19.85;;;;;;;5.57;77.27;98192.52;3040641;78;21129;-64
2021/01/24 06:43:03;;;;;;;25.90;17.95;;;;;;;5.55;77.34;98187.87;3014662;78;21126;-64
2021/01/24 06:47:29;;;;;;;31.52;19.40;;;;;;;5.53;77.28;98189.36;2993368;78;21140;-65
2021/01/24 06:51:40;;;;;;;32.83;20.80;;;;;;;5.56;77.24;98192.17;2964470;79;21125;-65
2021/01/24 06:56:08;;;;;;;38.95;20.43;;;;;;;5.51;76.87;98198.38;2981469;79;21153;-64
2021/01/24 07:00:20;;;;;;;;;;;;;;;5.41;76.63;98194.46;2984716;78;21152;-64
2021/01/24 07:04:30;;;;;;;27.58;18.12;;;;;;;5.42;77.69;98200.92;3035769;78;20167;-64
2021/01/24 07:08:35;;;;;;;30.08;17.75;;;;;;;5.43;77.31;98202.58;3035640;78;21171;-64
2021/01/24 07:12:44;;;;;;;24.25;16.65;;;;;;;5.32;76.86;98205.88;3031308;78;21150;-63
2021/01/24 07:16:47;;;;;;;27.42;17.37;;;;;;;5.09;77.08;98207.51;3020006;78;21585;-64
2021/01/24 07:20:54;;;;;;;26.55;18.77;;;;;;;4.94;77.74;98218.52;3036037;78;21145;-63
2021/01/24 07:24:57;;;;;;;30.02;19.77;;;;;;;4.88;78.33;98210.33;3035767;78;21675;-64
2021/01/24 07:29:01;;;;;;;28.15;18.92;;;;;;;4.82;78.55;98214.35;3032278;78;21136;-63
2021/01/24 07:33:05;;;;;;;37.25;26.33;;;;;;;4.80;79.33;98211.84;3008980;78;21098;-64
2021/01/24 07:37:09;;;;;;;36.30;27.37;;;;;;;5.04;80.19;98196.56;3030886;78;21627;-65
2021/01/24 07:41:11;;;;;;;34.85;20.45;;;;;;;5.26;79.51;98202.01;3031146;78;21093;-63
2021/01/24 07:45:15;;;;;;;29.57;20.00;;;;;;;5.40;78.92;98204.66;3029670;77;21117;-64
2021/01/24 07:49:19;;;;;;;33.58;21.07;;;;;;;5.55;78.76;98206.34;3059938;77;21133;-64
2021/01/24 07:53:22;;;;;;;29.95;18.17;;;;;;;5.68;78.39;98198.94;3056974;77;21125;-65
2021/01/24 07:57:25;;;;;;;36.17;21.97;;;;;;;5.77;77.98;98195.06;3038641;78;21121;-64
2021/01/24 08:01:28;;;;;;;38.73;24.77;;;;;;;5.81;77.43;98197.27;3049442;77;21149;-64
2021/01/24 08:05:33;;;;;;;88.82;46.15;;;;;;;5.78;77.08;98194.09;3035582;78;21129;-64
2021/01/24 08:09:37;;;;;;;46.33;29.02;;;;;;;5.76;76.96;98193.41;3035482;78;21090;-66
2021/01/24 08:13:42;;;;;;;126.97;65.47;;;;;;;5.77;77.05;98197.70;3035474;78;21106;-65
2021/01/24 08:17:46;;;;;;;32.98;19.50;;;;;;;5.83;77.61;98201.91;3041856;77;21117;-64
2021/01/24 08:21:50;;;;;;;23.62;16.62;;;;;;;5.93;77.08;98203.17;3035769;78;21132;-65
2021/01/24 08:25:54;;;;;;;24.63;15.00;;;;;;;5.92;76.64;98203.34;3025152;77;21168;-65
2021/01/24 08:29:57;;;;;;;20.65;14.23;;;;;;;5.86;76.58;98210.84;2997976;78;21723;-64
2021/01/24 08:34:02;;;;;;;19.62;14.80;;;;;;;5.79;76.18;98201.87;3005086;77;21121;-64
2021/01/24 08:38:05;;;;;;;27.93;19.80;;;;;;;5.69;76.50;98205.87;2980913;78;21125;-64
2021/01/24 08:42:09;;;;;;;28.27;18.55;;;;;;;5.69;76.87;98200.59;2967603;79;21132;-63
2021/01/24 08:46:20;;;;;;;22.50;15.18;;;;;;;5.63;77.12;98202.51;3009631;78;21144;-64
2021/01/24 08:50:25;;;;;;;32.40;21.37;;;;;;;5.69;77.33;98209.83;3021336;78;21120;-64
2021/01/24 08:54:35;;;;;;;577.88;377.18;;;;;;;5.66;76.95;98214.55;3021553;78;21442;-65
2021/01/24 08:58:38;;;;;;;532.62;322.33;;;;;;;5.63;77.08;98212.21;3021222;78;21125;-64
2021/01/24 09:02:42;;;;;;;132.45;93.75;;;;;;;5.60;77.27;98200.16;3021813;78;21113;-63
2021/01/24 09:07:07;;;;;;;30.17;20.52;;;;;;;5.62;77.45;98198.20;3004492;78;21129;-65
2021/01/24 09:11:10;;;;;;;132.32;85.30;;;;;;;5.62;77.30;98198.20;2984632;78;21608;-63
2021/01/24 09:15:13;;;;;;;23.83;15.55;;;;;;;5.52;77.34;98195.61;2967995;79;21136;-65
2021/01/24 09:19:18;;;;;;;69.20;41.25;;;;;;;5.46;77.39;98186.13;2970234;79;22136;-65
2021/01/24 09:23:21;;;;;;;19.73;15.25;;;;;;;5.35;77.61;98204.27;2993606;78;21139;-65
2021/01/24 09:27:23;;;;;;;34.03;25.23;;;;;;;5.36;78.09;98205.94;3039963;78;21120;-65
2021/01/24 09:31:27;;;;;;;34.35;22.65;;;;;;;5.45;78.43;98210.83;3039637;78;21123;-65
2021/01/24 09:35:30;;;;;;;37.95;25.48;;;;;;;5.39;78.18;98214.37;3039903;78;21163;-64
2021/01/24 09:39:33;;;;;;;35.03;22.27;;;;;;;5.41;78.69;98215.55;3039943;78;21111;-64
2021/01/24 09:43:36;;;;;;;35.55;20.57;;;;;;;5.49;78.83;98209.56;3039738;78;21107;-65
2021/01/24 09:47:40;;;;;;;17.70;12.45;;;;;;;5.47;78.77;98208.38;3039678;77;21119;-64
2021/01/24 09:51:44;;;;;;;35.00;24.52;;;;;;;5.53;78.49;98199.06;3039735;78;21179;-65
2021/01/24 09:55:47;;;;;;;16.00;8.28;;;;;;;5.53;79.22;98194.63;3040167;78;21119;-64
2021/01/24 09:59:50;;;;;;;33.15;23.15;;;;;;;5.71;79.67;98195.19;3040386;78;21131;-63
2021/01/24 10:03:53;;;;;;;15.60;10.10;;;;;;;5.97;79.21;98190.53;3040293;78;21087;-62
2021/01/24 10:07:56;;;;;;;24.60;16.50;;;;;;;6.13;77.97;98175.38;3040172;78;21155;-63
2021/01/24 10:11:59;;;;;;;16.75;8.63;;;;;;;6.31;77.47;98174.09;3040207;78;21159;-63
2021/01/24 10:16:02;;;;;;;26.50;16.42;;;;;;;6.43;76.35;98178.14;3040342;78;21151;-63
2021/01/24 10:20:06;;;;;;;17.00;10.70;;;;;;;6.66;76.88;98176.35;3039992;78;21095;-63
2021/01/24 10:24:10;;;;;;;18.07;13.38;;;;;;;6.76;75.92;98170.16;3040138;77;21147;-64
2021/01/24 10:28:13;;;;;;;13.78;9.00;;;;;;;6.84;75.24;98172.37;3040567;78;21164;-62
2021/01/24 10:32:16;;;;;;;71.30;42.88;;;;;;;6.72;74.78;98168.31;3050189;77;21133;-62
2021/01/24 10:36:20;;;;;;;52.67;36.13;;;;;;;6.71;75.08;98172.78;3014405;77;21090;-64
2021/01/24 10:40:23;;;;;;;23.67;17.37;;;;;;;6.73;74.62;98175.77;3013140;79;21129;-62
2021/01/24 10:44:26;;;;;;;27.37;17.27;;;;;;;6.59;74.51;98171.35;3012601;79;21145;-63
2021/01/24 10:48:29;;;;;;;16.32;11.90;;;;;;;6.38;75.11;98172.49;3012895;79;21196;-62
2021/01/24 10:52:32;;;;;;;18.87;10.38;;;;;;;6.25;75.73;98172.03;3012866;79;21106;-63
2021/01/24 10:56:34;;;;;;;50.55;31.12;;;;;;;6.31;75.98;98167.48;3012876;79;21134;-65
2021/01/24 11:00:39;;;;;;;36.95;25.55;;;;;;;6.31;76.46;98171.45;3012817;79;21129;-64
2021/01/24 11:04:42;;;;;;;33.30;21.60;;;;;;;6.41;76.24;98170.05;3030241;77;21106;-65
2021/01/24 11:08:45;;;;;;;37.45;28.62;;;;;;;6.42;75.39;98166.42;3031678;77;21121;-65
2021/01/24 11:12:49;;;;;;;45.05;32.50;;;;;;;6.39;75.07;98167.55;3012597;79;21157;-62
2021/01/24 11:16:52;;;;;;;19.80;14.33;;;;;;;6.37;75.45;98168.19;3012771;79;21102;-63
2021/01/24 11:20:55;;;;;;;31.15;20.20;;;;;;;6.50;75.41;98161.20;3012787;79;21171;-65
2021/01/24 11:24:57;;;;;;;40.78;30.48;;;;;;;6.72;75.15;98157.74;3012849;79;21592;-63
2021/01/24 11:29:00;;;;;;;77.85;55.43;;;;;;;6.95;75.36;98157.23;3043140;77;21065;-65
2021/01/24 11:33:04;;;;;;;28.95;20.65;;;;;;;7.21;74.03;98167.81;3077587;77;21137;-64
2021/01/24 11:37:09;;;;;;;47.85;31.62;;;;;;;7.31;74.02;98177.47;3052107;77;21134;-63
2021/01/24 11:41:12;;;;;;;27.32;17.57;;;;;;;7.19;73.61;98173.76;3044502;77;21134;-63
2021/01/24 11:45:15;;;;;;;24.70;17.60;;;;;;;7.34;73.62;98170.03;3011560;79;21149;-63
2021/01/24 11:49:19;;;;;;;59.98;34.92;;;;;;;7.28;72.99;98169.34;3012844;79;21182;-63
2021/01/24 11:53:23;;;;;;;32.25;19.95;;;;;;;7.12;72.26;98164.80;3012637;77;21122;-62
2021/01/24 11:57:26;;;;;;;29.15;17.77;;;;;;;7.02;72.65;98170.67;3012364;79;21125;-62
2021/01/24 12:01:29;;;;;;;26.17;19.92;;;;;;;7.02;73.03;98161.42;3012583;79;21150;-62
2021/01/24 12:05:32;;;;;;;30.72;18.27;;;;;;;7.07;73.16;98153.84;3012793;79;21118;-64
2021/01/24 12:09:36;;;;;;;31.57;19.95;;;;;;;7.21;72.83;98154.59;3012815;79;21165;-62
2021/01/24 12:13:39;;;;;;;25.35;18.92;;;;;;;7.35;72.47;98143.11;3012596;79;21185;-63
2021/01/24 12:17:42;;;;;;;27.25;19.32;;;;;;;7.43;71.52;98140.01;3037048;77;21132;-62
2021/01/24 12:21:46;;;;;;;37.93;19.12;;;;;;;7.38;70.79;98140.14;3040095;78;21138;-62
2021/01/24 12:25:49;;;;;;;26.40;16.97;;;;;;;7.34;70.85;98126.91;3038999;78;22206;-63
2021/01/24 12:29:52;;;;;;;27.35;18.23;;;;;;;7.36;70.80;98135.50;3023887;77;21145;-63
2021/01/24 12:33:55;;;;;;;27.42;18.77;;;;;;;7.46;70.70;98123.48;3012578;79;21101;-62
2021/01/24 12:37:58;;;;;;;22.80;16.82;;;;;;;7.54;70.69;98128.31;3012858;79;21113;-63
2021/01/24 12:42:00;;;;;;;21.85;15.45;;;;;;;7.61;70.57;98132.95;3012675;79;21141;-63
2021/01/24 12:46:03;;;;;;;29.98;18.50;;;;;;;7.66;70.10;98133.30;3012619;79;21173;-61
2021/01/24 12:50:07;;;;;;;37.17;24.18;;;;;;;7.65;70.34;98131.64;3012780;79;21130;-62
2021/01/24 12:54:10;;;;;;;29.07;17.80;;;;;;;7.66;70.16;98134.14;3012750;79;21105;-61
2021/01/24 12:58:13;;;;;;;24.05;18.62;;;;;;;7.60;70.33;98128.66;3012565;79;22252;-61
2021/01/24 13:02:16;;;;;;;31.48;18.75;;;;;;;7.52;70.30;98122.36;3012624;79;21125;-62
2021/01/24 13:06:19;;;;;;;22.35;15.98;;;;;;;7.39;70.18;98126.77;3010213;77;21102;-60
2021/01/24 13:10:21;;;;;;;26.70;16.67;;;;;;;7.26;70.36;98128.50;3002287;77;21156;-63
2021/01/24 13:14:24;;;;;;;28.27;20.30;;;;;;;7.18;70.70;98126.34;2985835;77;21101;-62
2021/01/24 13:18:27;;;;;;;33.67;19.57;;;;;;;7.15;70.80;98130.11;3031171;77;21129;-64
2021/01/24 13:22:30;;;;;;;37.63;23.02;;;;;;;7.16;70.95;98134.41;2989932;77;21117;-62
2021/01/24 13:26:32;;;;;;;24.72;17.48;;;;;;;7.06;71.29;98140.28;2983095;79;21096;-61
2021/01/24 13:30:35;;;;;;;23.07;15.93;;;;;;;7.04;71.30;98147.55;2981682;77;21106;-61
2021/01/24 13:34:39;;;;;;;23.57;15.90;;;;;;;7.01;71.22;98143.42;3005061;78;21141;-62
2021/01/24 13:38:42;;;;;;;30.80;18.25;;;;;;;7.01;71.23;98148.70;3017971;78;21126;-61
2021/01/24 13:42:46;;;;;;;18.45;13.85;;;;;;;6.98;71.29;98159.59;3035332;78;21074;-63
2021/01/24 13:46:49;;;;;;;17.57;13.60;;;;;;;6.91;71.40;98151.93;3039041;77;21633;-60
2021/01/24 13:50:54;;;;;;;26.82;17.75;;;;;;;6.82;71.72;98158.49;3057770;77;21106;-61
2021/01/24 13:54:57;;;;;;;31.07;17.60;;;;;;;6.80;71.88;98155.18;3057595;77;21156;-62
2021/01/24 13:59:00;;;;;;;29.48;19.80;;;;;;;6.76;72.24;98153.80;3023588;77;21126;-63
2021/01/24 14:03:03;;;;;;;21.33;14.68;;;;;;;6.73;72.38;98158.59;2990036;79;21086;-63
2021/01/24 14:07:06;;;;;;;29.42;17.92;;;;;;;6.70;72.38;98157.07;3013165;78;21134;-61
2021/01/24 14:11:09;;;;;;;28.07;17.32;;;;;;;6.68;72.76;98159.88;3035073;78;21125;-61
2021/01/24 14:15:14;;;;;;;28.20;17.80;;;;;;;6.69;73.23;98160.22;3031607;78;21158;-63
2021/01/24 14:19:22;;;;;;;31.37;19.50;;;;;;;6.66;73.37;98155.22;3022228;78;21145;-63
2021/01/24 14:23:38;;;;;;;19.10;16.30;;;;;;;6.67;73.36;98155.55;3003087;78;21595;-64
2021/01/24 14:27:54;;;;;;;20.48;14.70;;;;;;;6.59;73.50;98155.50;3022606;78;21151;-63
2021/01/24 14:31:58;;;;;;;28.67;17.25;;;;;;;6.53;73.64;98159.58;2990052;78;21154;-63
2021/01/24 14:36:04;;;;;;;25.23;18.70;;;;;;;6.52;74.04;98165.03;3004295;78;21141;-60
2021/01/24 14:40:15;;;;;;;27.00;17.37;;;;;;;6.48;73.99;98164.97;3035335;78;21105;-61
2021/01/24 14:44:27;;;;;;;24.77;19.73;;;;;;;6.48;74.10;98164.49;3033917;78;21165;-63
2021/01/24 14:48:31;;;;;;;33.40;22.40;;;;;;;6.48;74.06;98168.93;2982105;79;21100;-63
2021/01/24 14:52:33;;;;;;;29.50;20.37;;;;;;;6.42;74.08;98177.80;2982563;79;21100;-60
2021/01/24 14:57:10;;;;;;;26.12;18.35;;;;;;;6.35;74.09;98178.55;2982645;79;21073;-63
2021/01/24 15:01:13;;;;;;;29.25;20.52;;;;;;;6.31;74.62;98184.65;3015078;78;21552;-63
2021/01/24 15:05:53;;;;;;;36.10;23.27;;;;;;;6.28;74.66;98182.28;3028906;78;21086;-62
2021/01/24 15:09:55;;;;;;;28.90;20.52;;;;;;;6.23;74.77;98176.16;3013842;78;21106;-63
2021/01/24 15:14:32;;;;;;;27.17;18.35;;;;;;;6.19;75.11;98179.23;3013955;79;21102;-61
2021/01/24 15:18:35;;;;;;;25.03;18.03;;;;;;;6.22;75.24;98188.17;3014267;78;21074;-63
2021/01/24 15:22:40;;;;;;;28.77;21.48;;;;;;;6.22;75.22;98192.98;3013934;79;21101;-62
2021/01/24 15:31:20;;;;;;;22.37;16.82;;;;;;;6.19;75.23;98195.92;3031882;78;21089;-62
2021/01/24 15:35:56;;;;;;;29.65;20.85;;;;;;;6.19;75.19;98199.03;3032453;77;21523;-61
2021/01/24 15:39:59;;;;;;;31.93;22.17;;;;;;;6.19;75.55;98206.95;3024258;78;21106;-62
2021/01/24 15:44:35;;;;;;;31.00;19.92;;;;;;;6.17;75.31;98207.59;3023155;78;21055;-61
2021/01/24 15:48:39;;;;;;;28.02;19.67;;;;;;;6.14;75.37;98207.39;3022501;78;21138;-62
2021/01/24 15:52:42;;;;;;;34.45;25.43;;;;;;;6.11;75.65;98195.34;3021841;78;21154;-63
2021/01/24 15:56:45;;;;;;;35.45;22.37;;;;;;;6.12;75.77;98194.36;3021520;78;21091;-62
2021/01/24 16:00:48;;;;;;;35.35;21.82;;;;;;;6.11;75.73;98199.30;3021480;78;21126;-61
2021/01/24 16:04:51;;;;;;;36.25;23.80;;;;;;;6.11;76.08;98196.66;3021730;78;21138;-62
2021/01/24 16:08:54;;;;;;;32.33;21.87;;;;;;;6.17;76.06;98201.81;3021762;78;21107;-61
2021/01/24 16:12:57;;;;;;;37.67;26.90;;;;;;;6.27;76.39;98209.67;3021570;78;21141;-62
2021/01/24 16:17:02;;;;;;;36.70;25.65;;;;;;;6.27;75.62;98209.20;3021503;78;21110;-64
2021/01/24 16:21:06;;;;;;;41.63;25.00;;;;;;;6.19;75.88;98222.80;3021181;78;21130;-61
2021/01/24 16:25:09;;;;;;;42.73;28.62;;;;;;;6.06;76.31;98218.69;3020747;78;21118;-63
2021/01/24 16:29:14;;;;;;;79.70;56.80;;;;;;;5.84;75.65;98218.08;3023085;78;21130;-62
2021/01/24 16:33:17;;;;;;;33.30;22.80;;;;;;;5.46;75.84;98219.90;3025992;78;21138;-62
2021/01/24 16:37:20;;;;;;;37.78;20.00;;;;;;;5.31;76.79;98227.95;3026103;78;21122;-62
2021/01/24 16:41:23;;;;;;;31.75;22.48;;;;;;;5.20;77.20;98221.86;3026058;78;21106;-64
2021/01/24 16:45:27;;;;;;;33.88;22.45;;;;;;;5.25;77.61;98223.56;3026175;78;21110;-62
2021/01/24 16:49:29;;;;;;;32.30;21.85;;;;;;;5.26;77.46;98225.23;3025719;78;21142;-62
2021/01/24 16:53:33;;;;;;;34.95;21.77;;;;;;;5.19;77.72;98228.58;3026099;78;21131;-63
2021/01/24 16:57:36;;;;;;;29.92;19.35;;;;;;;5.20;78.04;98234.19;3025944;78;21166;-63
2021/01/24 17:01:40;;;;;;;30.77;21.02;;;;;;;5.19;77.82;98226.78;3025873;78;21102;-65
2021/01/24 17:05:47;;;;;;;31.25;21.25;;;;;;;5.13;78.06;98233.95;3025919;78;21146;-65
2021/01/24 17:09:50;;;;;;;31.07;19.27;;;;;;;5.10;78.17;98236.84;3025754;78;21146;-63
2021/01/24 17:13:53;;;;;;;29.82;19.82;;;;;;;5.06;78.43;98238.10;3026370;78;21127;-65
2021/01/24 17:17:56;;;;;;;40.52;24.82;;;;;;;5.02;78.96;98240.68;3026149;78;21126;-63
2021/01/24 17:21:59;;;;;;;43.38;28.38;;;;;;;5.06;78.83;98247.33;3025952;78;21596;-65
2021/01/24 17:26:02;;;;;;;38.33;25.32;;;;;;;4.99;78.93;98249.22;3026259;78;21130;-64
2021/01/24 17:30:09;;;;;;;41.98;31.77;;;;;;;4.90;79.12;98251.36;3023487;78;21131;-64
2021/01/24 17:34:13;;;;;;;45.63;29.42;;;;;;;4.91;79.70;98246.94;3021506;78;21130;-64
2021/01/24 17:38:17;;;;;;;43.28;26.65;;;;;;;4.99;79.71;98251.84;3021258;78;21123;-64
2021/01/24 17:42:20;;;;;;;38.15;26.80;;;;;;;5.05;79.56;98251.78;3021136;78;21134;-64
2021/01/24 17:46:23;;;;;;;45.45;29.55;;;;;;;5.06;79.10;98249.96;3021246;78;22260;-65
2021/01/24 17:50:26;;;;;;;40.50;28.30;;;;;;;4.99;79.13;98258.44;3028858;77;21137;-65
2021/01/24 17:54:30;;;;;;;42.65;27.73;;;;;;;4.93;79.42;98255.05;2986958;77;21276;-65
2021/01/24 17:58:33;;;;;;;52.03;30.88;;;;;;;4.95;79.59;98246.52;2981011;79;21676;-65
2021/01/24 18:02:35;;;;;;;54.10;34.27;;;;;;;4.98;79.80;98260.73;2980931;79;21109;-64
2021/01/24 18:06:39;;;;;;;56.58;34.90;;;;;;;5.05;79.64;98249.15;2980915;79;21116;-64
2021/01/24 18:10:42;;;;;;;55.90;36.68;;;;;;;5.08;79.79;98253.28;2981233;79;21128;-64
2021/01/24 18:14:45;;;;;;;78.90;42.70;;;;;;;5.12;79.43;98254.69;2980843;79;21116;-64
2021/01/24 18:18:50;;;;;;;62.60;39.40;;;;;;;5.11;79.48;98250.36;2981156;79;21096;-64
2021/01/24 18:22:52;;;;;;;45.90;30.80;;;;;;;5.09;79.50;98254.95;2981393;79;21124;-66
2021/01/24 18:26:55;;;;;;;52.05;35.08;;;;;;;5.08;79.59;98253.28;2981210;79;21093;-65
2021/01/24 18:30:58;;;;;;;52.03;34.15;;;;;;;5.05;79.58;98257.52;2981287;79;21125;-64
2021/01/24 18:35:01;;;;;;;51.35;34.10;;;;;;;5.06;79.83;98259.19;2981601;79;21096;-64
2021/01/24 18:39:05;;;;;;;52.98;32.53;;;;;;;5.07;80.18;98258.21;3005786;78;21157;-65
2021/01/24 18:43:08;;;;;;;44.73;32.38;;;;;;;5.11;80.27;98262.22;3033743;78;21118;-65
2021/01/24 18:47:11;;;;;;;59.50;37.13;;;;;;;5.12;80.05;98248.92;2981870;77;21136;-64
2021/01/24 18:51:14;;;;;;;53.40;32.23;;;;;;;5.18;80.25;98254.12;2981764;79;21097;-63
2021/01/24 18:55:18;;;;;;;52.58;33.73;;;;;;;5.18;79.92;98255.44;3014275;78;21118;-65
2021/01/24 18:59:21;;;;;;;47.70;31.33;;;;;;;5.14;79.82;98256.70;2998896;78;21098;-64
2021/01/24 19:03:24;;;;;;;52.70;33.63;;;;;;;5.12;79.92;98254.19;2997828;77;21137;-65
2021/01/24 19:07:27;;;;;;;45.03;28.57;;;;;;;5.14;79.91;98258.02;2961597;78;21141;-63